createdAt,value
2018-12-15T00:00:25.523Z,2.26
2018-12-15T00:01:06.084Z,2.22
2018-12-15T00:01:47.637Z,2.15
2018-12-15T00:02:28.266Z,2.25
2018-12-15T00:03:08.801Z,2.22
2018-12-15T00:03:49.351Z,2.22
2018-12-15T00:04:29.898Z,2.22
2018-12-15T00:05:10.474Z,2.26
2018-12-15T00:05:51.042Z,2.26
2018-12-15T00:06:31.604Z,2.26
2018-12-15T00:07:12.160Z,2.28
2018-12-15T00:07:52.715Z,2.2
2018-12-15T00:08:33.263Z,2.22
2018-12-15T00:09:13.829Z,2.22
2018-12-15T00:09:54.390Z,2.24
2018-12-15T00:10:34.941Z,2.24
2018-12-15T00:11:15.514Z,2.25
2018-12-15T00:11:56.072Z,2.25
2018-12-15T00:12:36.627Z,2.17
2018-12-15T00:13:17.203Z,2.17
2018-12-15T00:13:57.765Z,2.07
2018-12-15T00:14:38.309Z,2.22
2018-12-15T00:15:18.887Z,2.08
2018-12-15T00:15:59.440Z,2.2
2018-12-15T00:16:39.990Z,2.13
2018-12-15T00:17:20.547Z,2.13
2018-12-15T00:18:01.099Z,2.11
2018-12-15T00:18:41.654Z,2.13
2018-12-15T00:19:22.216Z,2.25
2018-12-15T00:20:02.767Z,2.24
2018-12-15T00:20:43.326Z,2.22
2018-12-15T00:21:24.041Z,2.13
2018-12-15T00:22:04.589Z,2.18
2018-12-15T00:22:45.143Z,2.1
2018-12-15T00:23:25.701Z,2.13
2018-12-15T00:24:06.252Z,2.13
2018-12-15T00:24:46.807Z,2.1
2018-12-15T00:25:27.376Z,2.08
2018-12-15T00:26:07.932Z,2.2
2018-12-15T00:26:48.533Z,2.17
2018-12-15T00:27:29.093Z,2.13
2018-12-15T00:28:09.655Z,2.13
2018-12-15T00:28:50.214Z,2.15
2018-12-15T00:29:30.775Z,2.14
2018-12-15T00:30:11.335Z,2.15
2018-12-15T00:30:51.894Z,2.25
2018-12-15T00:31:32.446Z,2.15
2018-12-15T00:32:12.997Z,2.14
2018-12-15T00:32:53.552Z,2.28
2018-12-15T00:33:34.145Z,2.17
2018-12-15T00:34:14.703Z,2.22
2018-12-15T00:34:55.255Z,2.14
2018-12-15T00:35:35.806Z,2.26
2018-12-15T00:36:16.368Z,2.25
2018-12-15T00:36:56.910Z,2.28
2018-12-15T00:37:37.486Z,2.14
2018-12-15T00:38:18.032Z,2.17
2018-12-15T00:38:58.591Z,2.14
2018-12-15T00:39:39.148Z,2.26
2018-12-15T00:40:19.690Z,2.15
2018-12-15T00:41:00.241Z,2.15
2018-12-15T00:41:40.801Z,2.14
2018-12-15T00:42:21.365Z,2.24
2018-12-15T00:43:01.926Z,2.17
2018-12-15T00:43:42.484Z,2.14
2018-12-15T00:44:23.043Z,2.15
2018-12-15T00:45:03.633Z,2.13
2018-12-15T00:45:44.187Z,2.14
2018-12-15T00:46:24.740Z,2.22
2018-12-15T00:47:06.696Z,2.24
2018-12-15T00:47:45.880Z,2.26
2018-12-15T00:48:26.395Z,2.15
2018-12-15T00:49:06.947Z,2.24
2018-12-15T00:49:47.496Z,2.18
2018-12-15T00:50:28.043Z,2.29
2018-12-15T00:51:08.626Z,2.2
2018-12-15T00:51:49.151Z,2.22
2018-12-15T00:52:29.727Z,2.18
2018-12-15T00:53:10.316Z,2.28
2018-12-15T00:53:50.891Z,2.25
2018-12-15T00:54:31.454Z,2.26
2018-12-15T00:55:11.999Z,2.25
2018-12-15T00:55:52.550Z,2.28
2018-12-15T00:56:33.106Z,2.29
2018-12-15T00:57:13.654Z,2.35
2018-12-15T00:57:54.259Z,2.29
2018-12-15T00:58:34.760Z,2.33
2018-12-15T00:59:15.330Z,2.32
2018-12-15T00:59:55.881Z,2.38
2018-12-15T01:00:36.461Z,2.32
2018-12-15T01:01:17.017Z,2.25
2018-12-15T01:01:57.574Z,2.31
2018-12-15T01:02:38.125Z,2.31
2018-12-15T01:03:18.694Z,2.32
2018-12-15T01:03:59.251Z,2.31
2018-12-15T01:04:39.798Z,2.29
2018-12-15T01:05:20.481Z,2.33
2018-12-15T01:06:00.902Z,2.35
2018-12-15T01:06:41.462Z,2.28
2018-12-15T01:07:22.020Z,2.31
2018-12-15T01:08:02.587Z,2.31
2018-12-15T01:08:43.128Z,2.31
2018-12-15T01:09:23.688Z,2.29
2018-12-15T01:10:04.246Z,2.29
2018-12-15T01:10:44.799Z,2.32
2018-12-15T01:11:25.353Z,2.33
2018-12-15T01:12:05.904Z,2.26
2018-12-15T01:12:46.462Z,2.25
2018-12-15T01:13:27.014Z,2.24
2018-12-15T01:14:07.574Z,2.26
2018-12-15T01:14:48.132Z,2.26
2018-12-15T01:15:28.750Z,2.31
2018-12-15T01:16:09.296Z,2.32
2018-12-15T01:16:49.931Z,2.38
2018-12-15T01:17:30.437Z,2.31
2018-12-15T01:18:11.009Z,2.29
2018-12-15T01:18:51.560Z,2.29
2018-12-15T01:19:32.128Z,2.35
2018-12-15T01:20:12.687Z,2.31
2018-12-15T01:20:53.242Z,2.33
2018-12-15T01:21:33.804Z,2.35
2018-12-15T01:22:14.352Z,2.29
2018-12-15T01:22:54.909Z,2.31
2018-12-15T01:23:35.466Z,2.31
2018-12-15T01:24:16.024Z,2.33
2018-12-15T01:24:56.590Z,2.32
2018-12-15T01:25:37.148Z,2.29
2018-12-15T01:26:17.695Z,2.28
2018-12-15T01:26:58.253Z,2.32
2018-12-15T01:27:38.801Z,2.32
2018-12-15T01:28:19.367Z,2.39
2018-12-15T01:28:59.941Z,2.32
2018-12-15T01:29:40.507Z,2.33
2018-12-15T01:30:21.052Z,2.33
2018-12-15T01:31:01.612Z,2.35
2018-12-15T01:31:42.163Z,2.38
2018-12-15T01:32:22.714Z,2.33
2018-12-15T01:33:03.535Z,2.33
2018-12-15T01:33:44.072Z,2.35
2018-12-15T01:34:24.630Z,2.31
2018-12-15T01:35:05.199Z,2.31
2018-12-15T01:35:45.749Z,2.33
2018-12-15T01:36:26.299Z,2.29
2018-12-15T01:37:06.860Z,2.35
2018-12-15T01:37:47.411Z,2.26
2018-12-15T01:38:27.957Z,2.31
2018-12-15T01:39:08.511Z,2.38
2018-12-15T01:39:49.067Z,2.38
2018-12-15T01:40:29.625Z,2.36
2018-12-15T01:41:10.176Z,2.31
2018-12-15T01:41:50.761Z,2.38
2018-12-15T01:42:31.353Z,2.31
2018-12-15T01:43:11.937Z,2.25
2018-12-15T01:43:52.444Z,2.25
2018-12-15T01:44:33.015Z,2.22
2018-12-15T01:45:13.565Z,2.18
2018-12-15T01:45:54.124Z,2.25
2018-12-15T01:46:34.686Z,2.24
2018-12-15T01:47:15.251Z,2.24
2018-12-15T01:47:55.810Z,2.22
2018-12-15T01:48:36.364Z,2.14
2018-12-15T01:49:16.918Z,2.14
2018-12-15T01:49:57.477Z,2.28
2018-12-15T01:50:38.051Z,2.2
2018-12-15T01:51:18.631Z,2.11
2018-12-15T01:51:59.174Z,2.13
2018-12-15T01:52:39.729Z,2.14
2018-12-15T01:53:20.349Z,2.24
2018-12-15T01:54:00.905Z,2.17
2018-12-15T01:54:41.475Z,2.07
2018-12-15T01:55:22.026Z,2.26
2018-12-15T01:56:02.595Z,2.15
2018-12-15T01:56:43.131Z,2.08
2018-12-15T01:57:23.674Z,2.1
2018-12-15T01:58:04.243Z,2.13
2018-12-15T01:58:44.793Z,2.13
2018-12-15T01:59:25.342Z,2.2
2018-12-15T02:00:05.903Z,2.13
2018-12-15T02:00:46.460Z,2.15
2018-12-15T02:01:27.015Z,2.14
2018-12-15T02:02:07.583Z,2.04
2018-12-15T02:02:48.142Z,2.1
2018-12-15T02:03:28.705Z,2.17
2018-12-15T02:04:09.267Z,2.13
2018-12-15T02:04:49.812Z,2.08
2018-12-15T02:05:30.378Z,2.14
2018-12-15T02:06:10.936Z,2.11
2018-12-15T02:06:51.495Z,2.14
2018-12-15T02:07:32.037Z,2.13
2018-12-15T02:08:12.612Z,2.1
2018-12-15T02:08:53.207Z,2.13
2018-12-15T02:09:33.746Z,2.13
2018-12-15T02:10:14.289Z,2.06
2018-12-15T02:10:54.869Z,2.24
2018-12-15T02:11:35.427Z,2.1
2018-12-15T02:12:15.994Z,2.17
2018-12-15T02:12:56.557Z,2.14
2018-12-15T02:13:37.127Z,2.15
2018-12-15T02:14:17.684Z,2.14
2018-12-15T02:14:58.232Z,2.18
2018-12-15T02:15:38.790Z,2.14
2018-12-15T02:16:19.329Z,2.1
2018-12-15T02:16:59.876Z,2.13
2018-12-15T02:17:40.437Z,2.11
2018-12-15T02:18:21.003Z,2.14
2018-12-15T02:19:01.561Z,2.1
2018-12-15T02:19:42.110Z,2.18
2018-12-15T02:20:22.667Z,2.14
2018-12-15T02:21:03.228Z,2.07
2018-12-15T02:21:43.784Z,2.15
2018-12-15T02:22:24.340Z,2.1
2018-12-15T02:23:04.902Z,2.1
2018-12-15T02:23:45.465Z,2.1
2018-12-15T02:24:26.027Z,2.06
2018-12-15T02:25:06.586Z,2.08
2018-12-15T02:25:47.136Z,2.13
2018-12-15T02:26:27.698Z,2.17
2018-12-15T02:27:08.247Z,2.15
2018-12-15T02:27:48.805Z,2.1
2018-12-15T02:28:29.365Z,2.2
2018-12-15T02:29:09.924Z,2.08
2018-12-15T02:29:50.494Z,2.14
2018-12-15T02:30:31.047Z,2.14
2018-12-15T02:31:11.603Z,2.14
2018-12-15T02:31:52.182Z,2.14
2018-12-15T02:32:32.748Z,2.15
2018-12-15T02:33:13.543Z,2.13
2018-12-15T02:33:54.103Z,2.24
2018-12-15T02:34:34.664Z,2.13
2018-12-15T02:35:15.214Z,2.14
2018-12-15T02:35:55.774Z,2.2
2018-12-15T02:36:36.336Z,2.18
2018-12-15T02:37:16.899Z,2.18
2018-12-15T02:37:57.447Z,2.17
2018-12-15T02:38:37.996Z,2.14
2018-12-15T02:39:18.584Z,2.26
2018-12-15T02:39:59.141Z,2.15
2018-12-15T02:40:39.706Z,2.24
2018-12-15T02:41:20.256Z,2.2
2018-12-15T02:42:00.830Z,2.13
2018-12-15T02:42:41.367Z,2.15
2018-12-15T02:43:21.940Z,2.11
2018-12-15T02:44:02.498Z,2.1
2018-12-15T02:44:43.070Z,2.24
2018-12-15T02:45:23.614Z,2.11
2018-12-15T02:46:04.161Z,2.22
2018-12-15T02:46:44.708Z,2.25
2018-12-15T02:47:25.259Z,2.26
2018-12-15T02:48:05.808Z,2.11
2018-12-15T02:48:46.365Z,2.17
2018-12-15T02:49:26.933Z,2.18
2018-12-15T02:50:07.482Z,2.22
2018-12-15T02:50:48.037Z,2.14
2018-12-15T02:51:28.585Z,2.15
2018-12-15T02:52:09.143Z,2.1
2018-12-15T02:52:49.699Z,2.25
2018-12-15T02:53:30.252Z,2.22
2018-12-15T02:54:10.810Z,2.29
2018-12-15T02:54:51.360Z,2.15
2018-12-15T02:55:31.926Z,2.24
2018-12-15T02:56:12.466Z,2.22
2018-12-15T02:56:53.036Z,2.25
2018-12-15T02:57:33.594Z,2.17
2018-12-15T02:58:14.159Z,2.26
2018-12-15T02:58:54.713Z,2.24
2018-12-15T02:59:35.280Z,2.31
2018-12-15T03:00:15.839Z,2.25
2018-12-15T03:00:56.387Z,2.33
2018-12-15T03:01:36.943Z,2.36
2018-12-15T03:02:17.495Z,2.35
2018-12-15T03:02:58.067Z,2.33
2018-12-15T03:03:38.638Z,2.31
2018-12-15T03:04:19.199Z,2.35
2018-12-15T03:04:59.746Z,2.33
2018-12-15T03:05:40.312Z,2.35
2018-12-15T03:06:20.870Z,2.33
2018-12-15T03:07:01.429Z,2.35
2018-12-15T03:07:41.978Z,2.35
2018-12-15T03:08:22.536Z,2.46
2018-12-15T03:09:03.093Z,2.44
2018-12-15T03:09:43.652Z,2.46
2018-12-15T03:10:24.208Z,2.44
2018-12-15T03:11:04.769Z,2.46
2018-12-15T03:11:45.327Z,2.44
2018-12-15T03:12:25.893Z,2.35
2018-12-15T03:13:06.442Z,2.31
2018-12-15T03:13:46.987Z,2.36
2018-12-15T03:14:27.565Z,2.31
2018-12-15T03:15:08.134Z,2.28
2018-12-15T03:15:48.701Z,2.29
2018-12-15T03:16:29.244Z,2.31
2018-12-15T03:17:09.802Z,2.31
2018-12-15T03:17:50.365Z,2.33
2018-12-15T03:18:30.929Z,2.29
2018-12-15T03:19:11.486Z,2.26
2018-12-15T03:19:52.050Z,2.32
2018-12-15T03:20:32.605Z,2.22
2018-12-15T03:21:13.181Z,2.2
2018-12-15T03:21:53.770Z,2.2
2018-12-15T03:22:34.339Z,2.26
2018-12-15T03:23:14.888Z,2.24
2018-12-15T03:23:55.465Z,2.24
2018-12-15T03:24:36.023Z,2.11
2018-12-15T03:25:16.563Z,2.22
2018-12-15T03:25:57.120Z,2.22
2018-12-15T03:26:37.680Z,2.26
2018-12-15T03:27:18.243Z,2.22
2018-12-15T03:27:58.797Z,2.26
2018-12-15T03:28:39.349Z,2.22
2018-12-15T03:29:19.908Z,2.08
2018-12-15T03:30:00.469Z,2.15
2018-12-15T03:30:41.029Z,2.08
2018-12-15T03:31:21.595Z,2.2
2018-12-15T03:32:02.134Z,2.28
2018-12-15T03:32:42.676Z,2.17
2018-12-15T03:33:23.231Z,2.18
2018-12-15T03:34:03.817Z,2.22
2018-12-15T03:34:44.323Z,2.17
2018-12-15T03:35:24.885Z,2.28
2018-12-15T03:36:05.442Z,2.17
2018-12-15T03:36:45.990Z,2.24
2018-12-15T03:37:26.536Z,2.25
2018-12-15T03:38:07.109Z,2.22
2018-12-15T03:38:47.650Z,2.24
2018-12-15T03:39:28.202Z,2.25
2018-12-15T03:40:08.765Z,2.17
2018-12-15T03:40:49.330Z,2.22
2018-12-15T03:41:29.899Z,2.2
2018-12-15T03:42:10.456Z,2.24
2018-12-15T03:42:51.021Z,2.26
2018-12-15T03:43:31.593Z,2.24
2018-12-15T03:44:12.149Z,2.24
2018-12-15T03:44:52.720Z,2.32
2018-12-15T03:45:33.288Z,2.31
2018-12-15T03:46:13.841Z,2.28
2018-12-15T03:46:54.391Z,2.32
2018-12-15T03:47:34.965Z,2.31
2018-12-15T03:48:15.520Z,2.39
2018-12-15T03:48:56.087Z,2.32
2018-12-15T03:49:36.636Z,2.32
2018-12-15T03:50:17.195Z,2.38
2018-12-15T03:50:57.744Z,2.33
2018-12-15T03:51:38.309Z,2.29
2018-12-15T03:52:18.872Z,2.31
2018-12-15T03:52:59.433Z,2.36
2018-12-15T03:53:39.984Z,2.36
2018-12-15T03:54:20.552Z,2.32
2018-12-15T03:55:01.110Z,2.29
2018-12-15T03:55:41.678Z,2.29
2018-12-15T03:56:22.237Z,2.33
2018-12-15T03:57:02.795Z,2.31
2018-12-15T03:57:43.360Z,2.32
2018-12-15T03:58:23.911Z,2.36
2018-12-15T03:59:04.464Z,2.33
2018-12-15T03:59:45.030Z,2.35
2018-12-15T04:00:25.589Z,2.33
2018-12-15T04:01:06.149Z,2.33
2018-12-15T04:01:46.708Z,2.32
2018-12-15T04:02:27.300Z,2.29
2018-12-15T04:03:07.834Z,2.42
2018-12-15T04:03:48.385Z,2.38
2018-12-15T04:04:28.953Z,2.33
2018-12-15T04:05:09.514Z,2.35
2018-12-15T04:05:50.056Z,2.29
2018-12-15T04:06:30.607Z,2.32
2018-12-15T04:07:11.169Z,2.35
2018-12-15T04:07:51.726Z,2.31
2018-12-15T04:08:32.266Z,2.33
2018-12-15T04:09:12.817Z,2.32
2018-12-15T04:09:53.369Z,2.35
2018-12-15T04:10:33.934Z,2.33
2018-12-15T04:11:14.469Z,2.33
2018-12-15T04:11:55.024Z,2.28
2018-12-15T04:12:35.572Z,2.33
2018-12-15T04:13:16.143Z,2.33
2018-12-15T04:13:56.703Z,2.26
2018-12-15T04:14:37.258Z,2.29
2018-12-15T04:15:17.838Z,2.28
2018-12-15T04:15:58.397Z,2.36
2018-12-15T04:16:38.958Z,2.38
2018-12-15T04:17:19.527Z,2.31
2018-12-15T04:18:03.638Z,2.35
2018-12-15T04:18:40.650Z,2.38
2018-12-15T04:19:21.205Z,2.43
2018-12-15T04:20:01.786Z,2.36
2018-12-15T04:20:42.363Z,2.43
2018-12-15T04:21:22.909Z,2.43
2018-12-15T04:22:03.467Z,2.5
2018-12-15T04:22:44.021Z,2.43
2018-12-15T04:23:24.579Z,2.46
2018-12-15T04:24:05.242Z,2.49
2018-12-15T04:24:45.788Z,2.46
2018-12-15T04:25:26.362Z,2.46
2018-12-15T04:26:06.919Z,2.44
2018-12-15T04:26:47.470Z,2.47
2018-12-15T04:27:28.045Z,2.53
2018-12-15T04:28:08.614Z,2.43
2018-12-15T04:28:49.173Z,2.44
2018-12-15T04:29:29.729Z,2.39
2018-12-15T04:30:10.274Z,2.44
2018-12-15T04:30:50.827Z,2.46
2018-12-15T04:31:31.393Z,2.46
2018-12-15T04:32:11.952Z,2.39
2018-12-15T04:32:52.734Z,2.38
2018-12-15T04:33:33.280Z,2.36
2018-12-15T04:34:13.816Z,2.35
2018-12-15T04:34:54.388Z,2.35
2018-12-15T04:35:34.934Z,2.39
2018-12-15T04:36:15.483Z,2.46
2018-12-15T04:36:56.038Z,2.43
2018-12-15T04:37:36.600Z,2.36
2018-12-15T04:38:17.170Z,2.38
2018-12-15T04:38:57.720Z,2.38
2018-12-15T04:39:38.285Z,2.39
2018-12-15T04:40:18.841Z,2.44
2018-12-15T04:40:59.406Z,2.44
2018-12-15T04:41:39.966Z,2.47
2018-12-15T04:42:20.517Z,2.47
2018-12-15T04:43:01.070Z,2.44
2018-12-15T04:43:41.624Z,2.43
2018-12-15T04:44:22.172Z,2.47
2018-12-15T04:45:02.726Z,2.44
2018-12-15T04:45:43.302Z,2.51
2018-12-15T04:46:23.875Z,2.43
2018-12-15T04:47:04.432Z,2.46
2018-12-15T04:47:45.005Z,2.44
2018-12-15T04:48:25.563Z,2.44
2018-12-15T04:49:06.124Z,2.43
2018-12-15T04:49:46.674Z,2.44
2018-12-15T04:50:27.224Z,2.44
2018-12-15T04:51:07.783Z,2.44
2018-12-15T04:51:48.332Z,2.46
2018-12-15T04:52:28.883Z,2.42
2018-12-15T04:53:09.441Z,2.44
2018-12-15T04:53:50.009Z,2.36
2018-12-15T04:54:30.568Z,2.42
2018-12-15T04:55:11.130Z,2.39
2018-12-15T04:55:51.677Z,2.42
2018-12-15T04:56:32.248Z,2.43
2018-12-15T04:57:12.808Z,2.39
2018-12-15T04:57:53.377Z,2.35
2018-12-15T04:58:33.931Z,2.39
2018-12-15T04:59:14.493Z,2.36
2018-12-15T04:59:55.049Z,2.42
2018-12-15T05:00:35.597Z,2.38
2018-12-15T05:01:16.149Z,2.38
2018-12-15T05:01:56.702Z,2.36
2018-12-15T05:02:43.565Z,2.44
2018-12-15T05:03:17.835Z,2.44
2018-12-15T05:03:58.384Z,2.46
2018-12-15T05:04:38.938Z,2.44
2018-12-15T05:05:19.500Z,2.43
2018-12-15T05:06:00.080Z,2.39
2018-12-15T05:06:40.639Z,2.43
2018-12-15T05:07:21.199Z,2.39
2018-12-15T05:08:01.744Z,2.38
2018-12-15T05:08:42.303Z,2.36
2018-12-15T05:09:22.847Z,2.36
2018-12-15T05:10:03.396Z,2.38
2018-12-15T05:10:43.956Z,2.35
2018-12-15T05:11:24.500Z,2.36
2018-12-15T05:12:05.051Z,2.38
2018-12-15T05:12:45.613Z,2.35
2018-12-15T05:13:26.170Z,2.35
2018-12-15T05:14:06.753Z,2.33
2018-12-15T05:14:47.317Z,2.33
2018-12-15T05:15:27.881Z,2.32
2018-12-15T05:16:08.450Z,2.36
2018-12-15T05:16:49.034Z,2.24
2018-12-15T05:17:29.583Z,2.31
2018-12-15T05:18:10.133Z,2.26
2018-12-15T05:18:50.698Z,2.24
2018-12-15T05:19:31.253Z,2.32
2018-12-15T05:20:11.827Z,2.28
2018-12-15T05:20:52.390Z,2.22
2018-12-15T05:21:32.930Z,2.36
2018-12-15T05:22:13.479Z,2.24
2018-12-15T05:22:54.034Z,2.29
2018-12-15T05:23:34.600Z,2.31
2018-12-15T05:24:15.151Z,2.32
2018-12-15T05:24:55.713Z,2.28
2018-12-15T05:25:36.275Z,2.36
2018-12-15T05:26:16.826Z,2.24
2018-12-15T05:26:57.378Z,2.31
2018-12-15T05:27:37.935Z,2.28
2018-12-15T05:28:18.485Z,2.29
2018-12-15T05:28:59.048Z,2.35
2018-12-15T05:29:39.624Z,2.31
2018-12-15T05:30:20.182Z,2.32
2018-12-15T05:31:00.758Z,2.35
2018-12-15T05:31:41.315Z,2.32
2018-12-15T05:32:21.886Z,2.33
2018-12-15T05:33:02.450Z,2.35
2018-12-15T05:33:43.013Z,2.31
2018-12-15T05:34:23.569Z,2.33
2018-12-15T05:35:04.150Z,2.29
2018-12-15T05:35:44.713Z,2.28
2018-12-15T05:36:25.338Z,2.33
2018-12-15T05:37:05.812Z,2.28
2018-12-15T05:37:46.375Z,2.32
2018-12-15T05:38:26.934Z,2.29
2018-12-15T05:39:07.495Z,2.32
2018-12-15T05:39:48.040Z,2.38
2018-12-15T05:40:28.589Z,2.35
2018-12-15T05:41:09.133Z,2.32
2018-12-15T05:41:49.691Z,2.28
2018-12-15T05:42:30.258Z,2.32
2018-12-15T05:43:10.806Z,2.31
2018-12-15T05:43:51.355Z,2.31
2018-12-15T05:44:31.917Z,2.33
2018-12-15T05:45:12.458Z,2.26
2018-12-15T05:45:53.020Z,2.33
2018-12-15T05:46:33.579Z,2.35
2018-12-15T05:47:14.132Z,2.32
2018-12-15T05:47:54.693Z,2.29
2018-12-15T05:48:35.251Z,2.29
2018-12-15T05:49:15.821Z,2.28
2018-12-15T05:49:56.375Z,2.36
2018-12-15T05:50:36.938Z,2.31
2018-12-15T05:51:17.506Z,2.28
2018-12-15T05:51:58.065Z,2.28
2018-12-15T05:52:38.601Z,2.33
2018-12-15T05:53:19.157Z,2.32
2018-12-15T05:53:59.714Z,2.33
2018-12-15T05:54:40.280Z,2.31
2018-12-15T05:55:20.828Z,2.32
2018-12-15T05:56:01.384Z,2.32
2018-12-15T05:56:41.975Z,2.31
2018-12-15T05:57:22.542Z,2.31
2018-12-15T05:58:03.111Z,2.29
2018-12-15T05:58:43.665Z,2.32
2018-12-15T05:59:24.220Z,2.28
2018-12-15T06:00:04.765Z,2.28
2018-12-15T06:00:45.324Z,2.32
2018-12-15T06:01:25.874Z,2.31
2018-12-15T06:02:06.433Z,2.33
2018-12-15T06:02:47.020Z,2.33
2018-12-15T06:03:27.530Z,2.32
2018-12-15T06:04:08.085Z,2.32
2018-12-15T06:04:48.631Z,2.25
2018-12-15T06:05:29.191Z,2.32
2018-12-15T06:06:09.765Z,2.31
2018-12-15T06:06:50.336Z,2.33
2018-12-15T06:07:30.885Z,2.24
2018-12-15T06:08:11.439Z,2.25
2018-12-15T06:08:52.002Z,2.24
2018-12-15T06:09:32.561Z,2.25
2018-12-15T06:10:13.108Z,2.24
2018-12-15T06:10:53.779Z,2.22
2018-12-15T06:11:34.322Z,2.31
2018-12-15T06:12:14.878Z,2.22
2018-12-15T06:12:55.482Z,2.28
2018-12-15T06:13:36.047Z,2.2
2018-12-15T06:14:16.610Z,2.14
2018-12-15T06:14:57.169Z,2.18
2018-12-15T06:15:37.739Z,2.22
2018-12-15T06:16:18.297Z,2.18
2018-12-15T06:16:58.853Z,2.24
2018-12-15T06:17:39.396Z,2.2
2018-12-15T06:18:19.940Z,2.18
2018-12-15T06:19:00.483Z,2.24
2018-12-15T06:19:41.033Z,2.28
2018-12-15T06:20:21.594Z,2.2
2018-12-15T06:21:02.152Z,2.18
2018-12-15T06:21:42.703Z,2.18
2018-12-15T06:22:23.252Z,2.18
2018-12-15T06:23:03.822Z,2.25
2018-12-15T06:23:44.374Z,2.17
2018-12-15T06:24:24.933Z,2.18
2018-12-15T06:25:05.496Z,2.18
2018-12-15T06:25:46.067Z,2.24
2018-12-15T06:26:26.621Z,2.22
2018-12-15T06:27:07.181Z,2.31
2018-12-15T06:27:47.735Z,2.24
2018-12-15T06:28:28.294Z,2.29
2018-12-15T06:29:08.852Z,2.26
2018-12-15T06:29:49.404Z,2.22
2018-12-15T06:30:29.966Z,2.25
2018-12-15T06:31:10.516Z,2.25
2018-12-15T06:31:51.076Z,2.25
2018-12-15T06:32:31.656Z,2.22
2018-12-15T06:33:12.203Z,2.2
2018-12-15T06:33:52.768Z,2.22
2018-12-15T06:34:33.363Z,2.28
2018-12-15T06:35:13.920Z,2.17
2018-12-15T06:35:54.480Z,2.24
2018-12-15T06:36:35.032Z,2.32
2018-12-15T06:37:15.581Z,2.31
2018-12-15T06:37:56.130Z,2.28
2018-12-15T06:38:36.732Z,2.31
2018-12-15T06:39:17.296Z,2.28
2018-12-15T06:39:57.841Z,2.36
2018-12-15T06:40:38.412Z,2.29
2018-12-15T06:41:18.984Z,2.28
2018-12-15T06:41:59.539Z,2.33
2018-12-15T06:42:40.093Z,2.31
2018-12-15T06:43:20.673Z,2.32
2018-12-15T06:44:01.249Z,2.28
2018-12-15T06:44:41.829Z,2.33
2018-12-15T06:45:22.381Z,2.33
2018-12-15T06:46:02.938Z,2.31
2018-12-15T06:46:43.497Z,2.31
2018-12-15T06:47:24.070Z,2.36
2018-12-15T06:48:04.624Z,2.32
2018-12-15T06:48:45.193Z,2.32
2018-12-15T06:49:25.759Z,2.32
2018-12-15T06:50:06.320Z,2.24
2018-12-15T06:50:46.877Z,2.24
2018-12-15T06:51:27.511Z,2.38
2018-12-15T06:52:08.014Z,2.32
2018-12-15T06:52:48.580Z,2.25
2018-12-15T06:53:29.142Z,2.26
2018-12-15T06:54:09.695Z,2.35
2018-12-15T06:54:50.267Z,2.28
2018-12-15T06:55:30.815Z,2.24
2018-12-15T06:56:11.368Z,2.29
2018-12-15T06:56:51.927Z,2.25
2018-12-15T06:57:32.504Z,2.32
2018-12-15T06:58:13.059Z,2.32
2018-12-15T06:58:53.609Z,2.33
2018-12-15T06:59:34.176Z,2.31
2018-12-15T07:00:14.735Z,2.36
2018-12-15T07:00:55.301Z,2.26
2018-12-15T07:01:35.853Z,2.26
2018-12-15T07:02:16.401Z,2.26
2018-12-15T07:02:56.979Z,2.24
2018-12-15T07:03:37.547Z,2.25
2018-12-15T07:04:18.098Z,2.24
2018-12-15T07:04:58.665Z,2.24
2018-12-15T07:05:39.233Z,2.2
2018-12-15T07:06:19.791Z,2.2
2018-12-15T07:07:00.365Z,2.18
2018-12-15T07:07:40.927Z,2.26
2018-12-15T07:08:21.506Z,2.24
2018-12-15T07:09:02.054Z,2.22
2018-12-15T07:09:42.610Z,2.29
2018-12-15T07:10:23.166Z,2.39
2018-12-15T07:11:03.737Z,2.36
2018-12-15T07:11:44.295Z,2.31
2018-12-15T07:12:24.863Z,2.38
2018-12-15T07:13:05.415Z,2.29
2018-12-15T07:13:45.971Z,2.32
2018-12-15T07:14:26.534Z,2.35
2018-12-15T07:15:07.105Z,2.25
2018-12-15T07:15:47.654Z,2.31
2018-12-15T07:16:28.220Z,2.25
2018-12-15T07:17:08.781Z,2.26
2018-12-15T07:17:49.341Z,2.33
2018-12-15T07:18:29.897Z,2.24
2018-12-15T07:19:10.726Z,2.24
2018-12-15T07:19:51.078Z,2.22
2018-12-15T07:20:31.614Z,2.33
2018-12-15T07:21:12.167Z,2.33
2018-12-15T07:21:52.737Z,2.28
2018-12-15T07:22:33.277Z,2.32
2018-12-15T07:23:13.826Z,2.32
2018-12-15T07:23:54.385Z,2.32
2018-12-15T07:24:34.948Z,2.24
2018-12-15T07:25:15.489Z,2.25
2018-12-15T07:25:56.046Z,2.2
2018-12-15T07:26:36.602Z,2.29
2018-12-15T07:27:17.161Z,2.25
2018-12-15T07:27:57.714Z,2.32
2018-12-15T07:28:38.277Z,2.24
2018-12-15T07:29:18.829Z,2.31
2018-12-15T07:29:59.405Z,2.28
2018-12-15T07:30:39.966Z,2.29
2018-12-15T07:31:20.518Z,2.28
2018-12-15T07:32:01.078Z,2.28
2018-12-15T07:32:41.639Z,2.29
2018-12-15T07:33:22.192Z,2.35
2018-12-15T07:34:02.749Z,2.33
2018-12-15T07:34:43.291Z,2.35
2018-12-15T07:35:23.844Z,2.33
2018-12-15T07:36:04.410Z,2.31
2018-12-15T07:36:44.962Z,2.32
2018-12-15T07:37:25.524Z,2.29
2018-12-15T07:38:06.077Z,2.35
2018-12-15T07:38:46.645Z,2.35
2018-12-15T07:39:28.521Z,2.33
2018-12-15T07:40:07.781Z,2.35
2018-12-15T07:40:48.330Z,2.35
2018-12-15T07:41:28.883Z,2.33
2018-12-15T07:42:09.443Z,2.33
2018-12-15T07:42:49.999Z,2.33
2018-12-15T07:43:30.553Z,2.29
2018-12-15T07:44:11.230Z,2.33
2018-12-15T07:44:51.777Z,2.35
2018-12-15T07:45:32.332Z,2.33
2018-12-15T07:46:13.008Z,2.29
2018-12-15T07:46:53.799Z,2.24
2018-12-15T07:47:34.568Z,2.26
2018-12-15T07:48:15.509Z,2.24
2018-12-15T07:48:56.502Z,2.24
2018-12-15T07:49:37.578Z,2.28
2018-12-15T07:50:19.544Z,2.26
2018-12-15T07:51:01.563Z,2.28
2018-12-15T07:51:44.372Z,2.25
2018-12-15T07:52:25.281Z,2.26
2018-12-15T07:53:06.692Z,2.17
2018-12-15T07:53:50.573Z,2.18
2018-12-15T07:54:31.763Z,2.22
2018-12-15T07:55:12.670Z,2.2
2018-12-15T07:55:53.917Z,2.24
2018-12-15T07:56:34.741Z,2.22
2018-12-15T07:57:15.326Z,2.25
2018-12-15T07:57:55.936Z,2.25
2018-12-15T07:58:36.495Z,2.2
2018-12-15T07:59:17.051Z,2.25
2018-12-15T07:59:57.602Z,2.22
2018-12-15T08:00:38.158Z,2.2
2018-12-15T08:01:18.718Z,2.2
2018-12-15T08:01:59.259Z,2.24
2018-12-15T08:02:39.813Z,2.22
2018-12-15T08:05:28.178Z,2.22
2018-12-15T08:06:08.732Z,2.2
2018-12-15T08:06:49.282Z,2.29
2018-12-15T08:07:29.851Z,2.35
2018-12-15T08:08:10.434Z,2.31
2018-12-15T08:08:51.001Z,2.36
2018-12-15T08:09:31.565Z,2.33
2018-12-15T08:10:12.124Z,2.33
2018-12-15T08:10:52.676Z,2.35
2018-12-15T08:11:33.240Z,2.32
2018-12-15T08:12:13.798Z,2.33
2018-12-15T08:12:54.357Z,2.33
2018-12-15T08:13:34.910Z,2.35
2018-12-15T08:14:15.463Z,2.32
2018-12-15T08:14:56.061Z,2.36
2018-12-15T08:15:36.630Z,2.35
2018-12-15T08:16:17.190Z,2.42
2018-12-15T08:16:57.750Z,2.29
2018-12-15T08:17:38.318Z,2.29
2018-12-15T08:18:18.855Z,2.33
2018-12-15T08:18:59.413Z,2.33
2018-12-15T08:19:39.965Z,2.35
2018-12-15T08:20:20.530Z,2.36
2018-12-15T08:21:01.082Z,2.26
2018-12-15T08:21:41.696Z,2.32
2018-12-15T08:22:26.019Z,2.28
2018-12-15T08:23:02.843Z,2.28
2018-12-15T08:23:43.399Z,2.32
2018-12-15T08:24:23.954Z,2.33
2018-12-15T08:25:04.515Z,2.28
2018-12-15T08:25:45.144Z,2.29
2018-12-15T08:26:25.712Z,2.31
2018-12-15T08:27:06.273Z,2.28
2018-12-15T08:27:46.821Z,2.22
2018-12-15T08:28:27.362Z,2.29
2018-12-15T08:29:07.918Z,2.31
2018-12-15T08:29:48.469Z,2.32
2018-12-15T08:30:29.031Z,2.25
2018-12-15T08:31:09.584Z,2.31
2018-12-15T08:31:50.175Z,2.25
2018-12-15T08:32:30.748Z,2.26
2018-12-15T08:33:11.281Z,2.28
2018-12-15T08:33:51.832Z,2.26
2018-12-15T08:34:32.402Z,2.35
2018-12-15T08:35:12.959Z,2.26
2018-12-15T08:35:53.507Z,2.22
2018-12-15T08:36:34.060Z,2.31
2018-12-15T08:37:14.608Z,2.32
2018-12-15T08:37:55.164Z,2.33
2018-12-15T08:38:35.720Z,2.29
2018-12-15T08:39:16.326Z,2.33
2018-12-15T08:39:56.876Z,2.32
2018-12-15T08:40:37.436Z,2.29
2018-12-15T08:41:18.221Z,2.28
2018-12-15T08:41:58.895Z,2.38
2018-12-15T08:42:39.700Z,2.29
2018-12-15T08:43:20.246Z,2.35
2018-12-15T08:44:00.852Z,2.31
2018-12-15T08:44:41.396Z,2.35
2018-12-15T08:45:21.950Z,2.36
2018-12-15T08:46:02.498Z,2.38
2018-12-15T08:46:43.369Z,2.36
2018-12-15T08:47:23.852Z,2.33
2018-12-15T08:48:04.405Z,2.39
2018-12-15T08:48:44.957Z,2.35
2018-12-15T08:49:25.510Z,2.35
2018-12-15T08:50:06.086Z,2.46
2018-12-15T08:50:46.649Z,2.43
2018-12-15T08:51:27.196Z,2.46
2018-12-15T08:52:07.738Z,2.47
2018-12-15T08:52:48.287Z,2.49
2018-12-15T08:53:28.852Z,2.49
2018-12-15T08:54:09.398Z,2.54
2018-12-15T08:54:49.958Z,2.51
2018-12-15T08:55:30.506Z,2.42
2018-12-15T08:56:11.065Z,2.53
2018-12-15T08:56:51.698Z,2.51
2018-12-15T08:57:32.259Z,2.43
2018-12-15T08:58:12.825Z,2.46
2018-12-15T08:58:53.380Z,2.49
2018-12-15T08:59:34.119Z,2.44
2018-12-15T09:00:14.679Z,2.49
2018-12-15T09:00:55.241Z,2.44
2018-12-15T09:01:35.788Z,2.44
2018-12-15T09:02:16.354Z,2.46
2018-12-15T09:02:56.911Z,2.47